Pottstown, Pennsylvania
Current Conditions -  °F | °C
As of 11:54 PM on Tuesday 25 Nov 2014 (Local Time) from KPTW Reporting Station
Clear Clear  
Wind Chill:   Ceiling: Unl
Heat Index:   Visibility: 10mi
Dew Point:   Wind: 3mph
Humidity: 79%   Direction: 20°NNE
Pressure: 30.18"   Gusts: NA
Location:  40.25°N, 75.65°W
Report Text: KPTW 260454Z AUTO 02003KT 10SM CLR 04/01 A3018 RMK AO2 SLP219 T00390006 401780022
Loading
Personal Weather Stations






























Interactive Weather Map New forecast layout! Learn more

10-Day Weather Forecast

Advertisements
Track Severe Weather on mobile